Terminal Aerodrome Forecast
Issued by NWS

Home | Current Version | Previous Version | Text Only | Print | Product List | Glossary On
Versions: 1 2 3 4 5 6 7 8 9 10 11 12
000
FTUS46 KSTO 201724
TAFSCK
TAF
KSCK 201724Z 2018/2118 32006KT P6SM SKC
     FM202300 33010KT P6SM SCT200
     FM210600 33004KT P6SM FEW100=

USA.gov is the U.S. government's official web portal to all federal, state and local government web resources and services.